Dye Mountain (222, 637) Station Data

Red Flag Warning: No
Fire Weather Zone: 250
SDGE Region: Ramona
Lat/Lon: 33.069/-116.71

Observations

Time Wind Speed/Gust Temp(F) RH Fuel Moist Fuel Temp(F) Dewpt(F) Tmax(F) Tmin(F) Accum Precip 10-min Precip SL Press(mb)
5/24 8:30am 127 3 G 6 69° 46% - - 47° 73.1° 62.5° - - 1010.0
5/24 8:20am 156 4 G 6 69° 43% - - 46° 73.1° 62.5° - - 1011.0
5/24 8:10am 81 4 G 6 68° 46% - - 47° 73.1° 62.5° - - 1010.0
5/24 8:00am 55 5 G 7 66° 52% - - 48° 73.1° 62.5° - - 1011.0
5/24 7:50am 124 2 G 4 66° 51% - - 47° 73.1° 62.5° - - 1011.0
5/24 7:40am 201 4 G 8 66° 49% - - 46° 73.1° 62.5° - - 1011.0
5/24 7:30am 205 4 G 8 68° 43% - - 45° 73.1° 62.5° - - 1011.0
5/24 7:20am 218 2 G 4 70° 40% - - 44° 73.1° 62.5° - - 1010.0
5/24 7:10am 258 2 G 3 72° 33% - - 42° 73.1° 62.5° - - 1009.0
5/24 7:00am 44 1 G 2 71° 34% - - 41° 72.2° 62.5° - - 1010.0
5/24 6:50am 42 2 G 2 71° 34% - - 41° 72° 62.5° - - 1009.0
5/24 6:40am 57 2 G 3 71° 32% - - 40° 72° 62.5° - - 1009.0
5/24 6:30am 60 2 G 3 70° 34% - - 40° 71.3° 62.5° - - 1010.0
5/24 6:20am 56 3 G 4 70° 35% - - 40° 71.3° 62.5° - - 1009.0
5/24 6:10am 57 2 G 4 69° 35% - - 41° 71.3° 62.5° - - 1010.0
5/24 6:00am 43 4 G 6 67° 39% - - 41° 71.3° 62.5° - - 1010.0
5/24 5:50am 33 6 G 8 64° 44% - - 42° 71.3° 62.5° - - 1011.0
5/24 5:40am 39 8 G 10 63° 45% - - 41° 71.3° 62.5° - - 1011.0
5/24 5:30am 44 8 G 10 64° 43% - - 41° 71.3° 62.9° - - 1011.0
5/24 5:20am 45 7 G 9 65° 41% - - 41° 71.3° 64.2° - - 1011.0
5/24 5:10am 55 4 G 8 66° 39% - - 40° 71.3° 65.3° - - 1010.0
5/24 5:00am 74 1 G 3 66° 39% - - 41° 71.3° 65.5° - - 1011.0
5/24 4:50am 96 2 G 2 67° 39% - - 41° 71.3° 65.5° - - 1011.0
5/24 4:40am 73 2 G 3 67° 39% - - 41° 71.3° 65.5° - - 1011.0
5/24 4:30am 77 1 G 2 67° 39% - - 41° 71.3° 65.5° - - 1011.0
5/24 4:20am 55 2 G 2 66° 40% - - 41° 71.3° 65.5° - - 1011.0
5/24 4:10am 42 2 G 3 66° 42% - - 43° 71.3° 65.5° - - 1011.0
5/24 4:00am 58 1 G 1 67° 42% - - 43° 71.3° 66.5° - - 1011.0
5/24 3:50am 226 0 G 1 68° 41% - - 43° 71.3° 66.5° - - 1011.0
5/24 3:40am 205 2 G 3 68° 40% - - 43° 71.3° 66.5° - - 1011.0
5/24 3:30am 233 1 G 3 69° 42% - - 44° 71.3° 66.5° - - 1011.0
5/24 3:20am 247 1 G 2 69° 44% - - 46° 71.3° 66.5° - - 1011.0
5/24 3:10am 207 2 G 3 69° 43% - - 45° 71.3° 66.5° - - 1011.0
5/24 3:00am 189 1 G 3 69° 45% - - 47° 71.3° 66.5° - - 1010.0
5/24 2:50am 129 0 G 2 69° 48% - - 49° 71.3° 66.5° - - 1010.0
5/24 2:40am 162 1 G 2 70° 48% - - 50° 71.3° 66.5° - - 1010.0
5/24 2:30am 129 1 G 2 71° 46% - - 49° 71.3° 66.5° - - 1010.0
5/24 2:20am 69 2 G 3 70° 48% - - 50° 71.2° 66.5° - - 1010.0
5/24 2:10am 43 4 G 6 69° 52% - - 51° 70° 66.5° - - 1010.0
5/24 2:00am 45 4 G 5 69° 52% - - 51° 69.9° 66.5° - - 1011.0
5/24 1:50am 52 6 G 6 68° 53% - - 50° 69.9° 66.5° - - 1011.0
5/24 1:40am 52 6 G 7 68° 54% - - 50° 69.9° 66.5° - - 1011.0
5/24 1:30am 48 6 G 7 68° 52% - - 50° 69.9° 66.5° - - 1011.0
5/24 1:20am 51 6 G 7 68° 53% - - 50° 69.9° 67.1° - - 1012.0
5/24 1:10am 65 4 G 6 68° 54% - - 51° 69.9° 67.2° - - 1012.0
5/24 1:00am 67 2 G 3 68° 55% - - 51° 69.9° 67.4° - - 1012.0
5/24 12:50am 63 2 G 3 68° 57% - - 52° 69.9° 67.4° - - 1012.0
5/24 12:40am 115 1 G 1 69° 56% - - 52° 69.9° 67.8° - - 1012.0
5/24 12:30am 70 1 G 2 68° 56% - - 52° 69.9° 67.8° - - 1012.0
5/24 12:20am 56 2 G 2 69° 55% - - 52° 69.9° 67.9° - - 1012.0
5/24 12:10am 72 1 G 2 69° 54% - - 52° 69.9° 68.9° - - 1012.0
5/24 12:00am 54 2 G 2 69° 55% - - 52° 88.1° 66.7° - - 1012.0
5/23 11:50pm 56 1 G 2 69° 55% - - 52° 88.1° 66.7° - - 1012.0
5/23 11:40pm 60 0 G 2 69° 55% - - 52° 88.1° 66.7° - - 1012.0
5/23 11:30pm 56 0 G 1 69° 55% - - 52° 88.1° 66.7° - - 1012.0
5/23 11:20pm 36 1 G 2 69° 55% - - 52° 88.1° 66.7° - - 1012.0
5/23 11:10pm 69 2 G 3 70° 53% - - 52° 88.1° 66.7° - - 1012.0
5/23 11:00pm 41 2 G 4 70° 53% - - 53° 88.1° 66.7° - - 1012.0
5/23 10:50pm 34 5 G 6 70° 54% - - 53° 88.1° 66.7° - - 1012.0
5/23 10:40pm 27 4 G 6 70° 55% - - 53° 88.1° 66.7° - - 1012.0
5/23 10:30pm 25 6 G 7 69° 58% - - 53° 88.1° 66.7° - - 1013.0
5/23 10:20pm 34 6 G 7 67° 60% - - 53° 88.1° 66.7° - - 1013.0
5/23 10:10pm 37 5 G 6 68° 59% - - 53° 88.1° 66.7° - - 1013.0
5/23 10:00pm 52 4 G 5 67° 59% - - 52° 88.1° 66.7° - - 1013.0
5/23 9:50pm 83 3 G 4 68° 57% - - 53° 88.1° 67° - - 1013.0
5/23 9:40pm 116 2 G 3 70° 55% - - 52° 88.1° 67.6° - - 1012.0
5/23 9:30pm 82 1 G 2 70° 53% - - 52° 88.1° 67.6° - - 1012.0
5/23 9:20pm 89 0 G 2 70° 53% - - 52° 88.1° 67.6° - - 1012.0
5/23 9:10pm 59 2 G 3 70° 53% - - 52° 88.1° 67.6° - - 1012.0
5/23 9:00pm 62 1 G 2 71° 52% - - 52° 88.1° 67.6° - - 1012.0
5/23 8:50pm 93 2 G 4 70° 53% - - 52° 88.1° 67.6° - - 1012.0
5/23 8:40pm 80 2 G 4 70° 54% - - 53° 88.1° 67.6° - - 1012.0
5/23 8:30pm 86 2 G 3 71° 54% - - 53° 88.1° 67.6° - - 1012.0
5/23 8:20pm 82 2 G 4 70° 55% - - 53° 88.1° 67.6° - - 1012.0
5/23 8:10pm 65 3 G 4 71° 54% - - 54° 88.1° 67.6° - - 1012.0
5/23 8:00pm 150 3 G 5 72° 51% - - 53° 88.1° 67.6° - - 1012.0
5/23 7:50pm 301 1 G 2 72° 50% - - 53° 88.1° 67.6° - - 1012.0
5/23 7:40pm 305 2 G 3 73° 49% - - 53° 88.1° 67.6° - - 1012.0
5/23 7:30pm 277 3 G 6 74° 48% - - 53° 88.1° 67.6° - - 1011.0
5/23 7:20pm 269 5 G 7 75° 46% - - 53° 88.1° 67.6° - - 1011.0
5/23 7:10pm 240 4 G 8 76° 45% - - 54° 88.1° 67.6° - - 1011.0
5/23 7:00pm 248 5 G 9 78° 45% - - 54° 88.1° 67.6° - - 1011.0
5/23 6:50pm 238 5 G 9 79° 42% - - 54° 88.1° 67.6° - - 1010.0
5/23 6:40pm 256 4 G 6 80° 37% - - 51° 88.1° 67.6° - - 1010.0
5/23 6:30pm 269 4 G 6 81° 34% - - 50° 88.1° 67.6° - - 1010.0
5/23 6:20pm 270 5 G 10 82° 33% - - 49° 88.1° 67.6° - - 1010.0
5/23 6:10pm 293 4 G 7 81° 31% - - 48° 88.1° 67.6° - - 1010.0
5/23 6:00pm 295 3 G 6 81° 35% - - 51° 88.1° 67.6° - - 1010.0
5/23 5:50pm 266 3 G 5 82° 34% - - 51° 88.1° 67.6° - - 1010.0
5/23 5:40pm 287 1 G 4 82° 34% - - 51° 88.1° 67.6° - - 1010.0
5/23 5:30pm 261 4 G 8 82° 34% - - 50° 88.1° 67.6° - - 1010.0
5/23 5:20pm 243 3 G 6 82° 35% - - 52° 88.1° 67.6° - - 1010.0
5/23 5:10pm 291 1 G 5 81° 36% - - 51° 88.1° 67.6° - - 1010.0
5/23 5:00pm 260 4 G 7 81° 38% - - 53° 88.1° 67.6° - - 1011.0
5/23 4:50pm 234 4 G 7 80° 40% - - 54° 88.1° 67.6° - - 1011.0
5/23 4:40pm 295 3 G 7 80° 40% - - 53° 88.1° 67.6° - - 1011.0
5/23 4:30pm 264 4 G 8 79° 41% - - 54° 88.1° 67.6° - - 1011.0
5/23 4:20pm 229 4 G 8 79° 40% - - 53° 88.1° 67.6° - - 1011.0
5/23 4:10pm 232 5 G 11 79° 39% - - 52° 88.1° 67.6° - - 1011.0
5/23 4:00pm 224 5 G 9 79° 41% - - 53° 88.1° 67.6° - - 1012.0
5/23 3:50pm 249 6 G 11 80° 42% - - 54° 88.1° 67.6° - - 1012.0
5/23 3:40pm 250 6 G 12 79° 43% - - 55° 88.1° 67.6° - - 1012.0
5/23 3:30pm 243 8 G 15 79° 44% - - 55° 88.1° 67.6° - - 1012.0
5/23 3:20pm 252 9 G 15 79° 44% - - 56° 88.1° 67.6° - - 1012.0
5/23 3:10pm 242 7 G 14 80° 45% - - 57° 88.1° 67.6° - - 1011.0
5/23 3:00pm 243 8 G 14 80° 46% - - 57° 88.1° 67.6° - - 1011.0
5/23 2:50pm 235 7 G 14 80° 46% - - 57° 88.1° 67.6° - - 1011.0
5/23 2:40pm 226 6 G 11 81° 45% - - 57° 88.1° 67.6° - - 1011.0
5/23 2:30pm 230 6 G 11 81° 43% - - 57° 88.1° 67.6° - - 1011.0
5/23 2:20pm 223 6 G 10 82° 41% - - 56° 88.1° 67.6° - - 1011.0
5/23 2:10pm 226 6 G 10 83° 40% - - 56° 88.1° 67.6° - - 1011.0
5/23 2:00pm 218 7 G 12 83° 38% - - 55° 88.1° 67.6° - - 1011.0
5/23 1:50pm 208 6 G 10 84° 36% - - 54° 88.1° 67.6° - - 1010.0
5/23 1:40pm 232 6 G 11 85° 37% - - 55° 88.1° 67.6° - - 1010.0
5/23 1:30pm 251 7 G 12 84° 37% - - 55° 88.1° 67.6° - - 1010.0
5/23 1:20pm 228 7 G 15 84° 36% - - 54° 88.1° 67.6° - - 1010.0
5/23 1:10pm 242 6 G 12 86° 33% - - 53° 88.1° 67.6° - - 1010.0
5/23 1:00pm 250 7 G 13 85° 32% - - 51° 88.1° 67.6° - - 1010.0
5/23 12:50pm 233 7 G 13 85° 30% - - 50° 88.1° 67.6° - - 1010.0
5/23 12:40pm 218 7 G 18 87° 28% - - 49° 88.1° 67.6° - - 1010.0
5/23 12:30pm 223 6 G 11 86° 25% - - 46° 88.1° 67.6° - - 1010.0
5/23 12:20pm 225 7 G 13 85° 25% - - 45° 88.1° 67.6° - - 1010.0
5/23 12:10pm 231 7 G 11 86° 24% - - 45° 88.1° 67.6° - - 1010.0
5/23 12:00pm 228 6 G 12 87° 23% - - 45° 88.1° 67.6° - - 1010.0
5/23 11:50am 238 6 G 11 86° 24% - - 45° 88.1° 67.6° - - 1010.0
5/23 11:40am 238 6 G 14 87° 22% - - 44° 88.1° 67.6° - - 1010.0
5/23 11:30am 256 4 G 8 87° 23% - - 45° 87.9° 67.6° - - 1010.0
5/23 11:20am 196 3 G 6 87° 28% - - 50° 87.8° 67.6° - - 1010.0
5/23 11:10am 197 5 G 11 86° 30% - - 51° 86.9° 67.6° - - 1011.0
5/23 11:00am 237 3 G 7 86° 29% - - 50° 86.4° 67.6° - - 1011.0
5/23 10:50am 252 4 G 7 85° 30% - - 50° 85.8° 67.6° - - 1011.0
5/23 10:40am 229 3 G 6 84° 33% - - 52° 85° 67.6° - - 1011.0
5/23 10:30am 222 3 G 6 84° 33% - - 52° 84.7° 67.6° - - 1011.0
5/23 10:20am 210 3 G 7 83° 34% - - 52° 84.3° 67.6° - - 1011.0
5/23 10:10am 196 4 G 7 83° 34% - - 52° 84.3° 67.6° - - 1011.0
5/23 10:00am 212 3 G 7 83° 35% - - 52° 84.2° 67.6° - - 1011.0
5/23 9:50am 202 4 G 6 83° 33% - - 51° 83.9° 67.6° - - 1011.0
5/23 9:40am 214 2 G 5 82° 35% - - 52° 83.5° 67.6° - - 1011.0
5/23 9:30am 240 1 G 4 83° 35% - - 52° 83.5° 67.6° - - 1011.0
5/23 9:20am 190 1 G 3 83° 33% - - 51° 83.5° 67.6° - - 1011.0
5/23 9:10am 207 1 G 2 81° 35% - - 50° 81.7° 67.6° - - 1012.0
5/23 9:00am 160 1 G 3 80° 35% - - 50° 81° 67.6° - - 1012.0
5/23 8:50am 196 3 G 4 79° 35% - - 49° 80.7° 67.6° - - 1012.0
5/23 8:40am 216 1 G 3 79° 35% - - 50° 80.7° 67.6° - - 1012.0
5/23 8:30am 95 1 G 2 79° 34% - - 49° 80.4° 67.6° - - 1012.0
5/23 8:20am 48 1 G 2 78° 31% - - 45° 79.2° 67.6° - - 1012.0
5/23 8:10am 68 1 G 2 78° 31% - - 45° 78.6° 67.6° - - 1012.0
5/23 8:00am 25 0 G 3 77° 33% - - 46° 77.6° 67.6° - - 1012.0
5/23 7:50am 61 2 G 4 77° 33% - - 45° 77.6° 67.6° - - 1012.0
5/23 7:40am 55 4 G 6 77° 31% - - 44° 77.6° 67.6° - - 1012.0
5/23 7:30am 46 6 G 7 77° 29% - - 42° 77.6° 67.6° - - 1012.0
5/23 7:20am 45 4 G 7 75° 31% - - 43° 77.1° 67.6° - - 1012.0
5/23 7:10am 48 4 G 5 74° 32% - - 42° 77.1° 67.6° - - 1012.0
5/23 7:00am 34 4 G 5 74° 30% - - 40° 77.1° 67.6° - - 1012.0
5/23 6:50am 37 5 G 6 74° 27% - - 38° 77.1° 67.6° - - 1012.0
5/23 6:40am 32 5 G 6 75° 24% - - 37° 77.1° 67.6° - - 1012.0
5/23 6:30am 37 3 G 5 76° 22% - - 35° 77.1° 67.6° - - 1011.0
5/23 6:20am 17 1 G 3 75° 22% - - 34° 76.3° 67.6° - - 1012.0
5/23 6:10am 51 3 G 5 75° 23% - - 35° 75.5° 67.6° - - 1012.0
5/23 6:00am 55 4 G 5 74° 25% - - 36° 74.7° 67.6° - - 1012.0